Time;durP1;ratioP1;P1;durP2;ratioP2;P2;SDS_P1;SDS_P2;PMS_P1;PMS_P2;Temp;Humidity;BMP_temperature;BMP_pressure;BME280_temperature;BME280_humidity;BME280_pressure;Samples;Min_cycle;Max_cycle;Signal;HPM_P1;HPM_P2
2021/07/07 00:00:55;;;;;;;;;2.25;2.25;;;;;19.24;56.18;101092.69;5107324;27;44715;-79
2021/07/07 00:03:20;;;;;;;;;3.25;3.25;;;;;19.20;56.34;101089.38;5081034;27;45477;-76
2021/07/07 00:05:45;;;;;;;;;3.00;3.00;;;;;19.20;56.38;101096.50;5084779;27;45342;-76
2021/07/07 00:08:11;;;;;;;;;4.00;2.75;;;;;19.18;56.37;101093.97;5080902;27;45286;-87
2021/07/07 00:10:37;;;;;;;;;4.50;3.50;;;;;19.19;56.21;101106.31;5081153;27;45334;-87
2021/07/07 00:13:04;;;;;;;;;4.25;2.50;;;;;19.17;56.25;101108.22;5095096;27;45414;-86
2021/07/07 00:15:33;;;;;;;;;2.75;2.50;;;;;19.14;56.35;101099.56;5078851;27;47723;-85
2021/07/07 00:18:02;;;;;;;;;4.50;4.00;;;;;19.17;55.97;101102.88;5080570;27;45517;-85
2021/07/07 00:20:34;;;;;;;;;4.00;3.00;;;;;19.15;56.56;101099.44;5081060;27;45180;-86
2021/07/07 00:23:01;;;;;;;;;3.00;3.00;;;;;19.15;56.45;101109.22;5080664;27;45439;-84
2021/07/07 00:25:26;;;;;;;;;3.75;3.75;;;;;19.07;55.72;101102.59;5087900;27;46920;-84
2021/07/07 00:27:51;;;;;;;;;4.25;3.00;;;;;19.03;56.74;101106.41;5100971;27;46363;-85
2021/07/07 00:30:17;;;;;;;;;3.50;2.00;;;;;19.06;56.36;101111.53;5099995;27;45390;-87
2021/07/07 00:32:42;;;;;;;;;4.00;3.00;;;;;19.01;56.24;101105.66;5087406;27;45332;-88
2021/07/07 00:35:08;;;;;;;;;4.00;4.00;;;;;19.04;56.30;101113.44;5080593;27;46155;-91
2021/07/07 00:37:34;;;;;;;;;2.25;2.25;;;;;19.05;56.30;101117.81;5086206;27;45383;-88
2021/07/07 00:39:59;;;;;;;;;4.00;2.25;;;;;19.01;56.50;101109.16;5079357;27;45800;-84
2021/07/07 00:42:25;;;;;;;;;3.50;3.50;;;;;19.04;56.43;101109.94;5080745;27;45447;-84
2021/07/07 00:44:50;;;;;;;;;4.50;2.50;;;;;19.03;56.24;101111.75;5085893;27;45219;-85
2021/07/07 00:47:15;;;;;;;;;3.00;3.00;;;;;19.07;56.42;101117.72;5080496;27;45201;-84
2021/07/07 00:49:41;;;;;;;;;4.25;3.00;;;;;19.04;56.24;101105.44;5080552;27;45127;-84
2021/07/07 00:52:08;;;;;;;;;3.75;3.00;;;;;19.03;56.53;101114.41;5080348;28;45540;-83
2021/07/07 00:54:33;;;;;;;;;3.25;3.25;;;;;18.98;56.70;101109.38;5080493;27;46413;-80
2021/07/07 00:57:00;;;;;;;;;4.00;2.00;;;;;19.00;56.74;101118.13;5097442;27;45324;-80
2021/07/07 00:59:28;;;;;;;;;3.00;3.00;;;;;18.95;56.87;101109.56;5100234;27;45308;-80
2021/07/07 01:01:54;;;;;;;;;6.00;4.75;;;;;18.97;57.02;101112.97;5091405;27;46035;-80
2021/07/07 01:04:20;;;;;;;;;4.00;3.25;;;;;18.92;56.83;101099.09;5097186;27;46452;-80
2021/07/07 01:06:46;;;;;;;;;2.00;2.00;;;;;18.93;57.00;101106.13;5093127;27;45258;-80
2021/07/07 01:09:11;;;;;;;;;3.00;3.00;;;;;18.92;56.77;101100.88;5084511;27;45269;-80
2021/07/07 01:11:36;;;;;;;;;4.00;3.00;;;;;18.96;56.57;101113.09;5099184;27;45229;-80
2021/07/07 01:14:02;;;;;;;;;4.25;4.25;;;;;18.92;57.33;101104.41;5100277;27;46266;-80
2021/07/07 01:16:28;;;;;;;;;7.75;3.00;;;;;18.94;57.16;101110.50;5096980;27;45448;-80
2021/07/07 01:18:54;;;;;;;;;4.50;2.50;;;;;18.92;57.38;101115.06;5091998;27;45509;-84
2021/07/07 01:21:21;;;;;;;;;3.00;3.00;;;;;18.87;56.80;101118.03;5080034;27;45365;-84
2021/07/07 01:23:46;;;;;;;;;3.25;3.00;;;;;18.87;56.83;101110.03;5079697;27;46554;-86
2021/07/07 01:26:12;;;;;;;;;2.50;2.50;;;;;18.92;57.40;101124.84;5081772;27;45337;-91
2021/07/07 01:28:37;;;;;;;;;3.00;3.00;;;;;18.83;57.39;101108.53;5099112;27;45422;-88
2021/07/07 01:31:04;;;;;;;;;4.00;3.25;;;;;18.87;57.36;101122.47;5100467;27;45321;-89
2021/07/07 01:33:29;;;;;;;;;5.00;3.00;;;;;18.84;57.45;101123.53;5085174;27;45296;-88
2021/07/07 01:35:54;;;;;;;;;2.75;2.75;;;;;18.83;57.02;101112.97;5080630;27;45369;-95
2021/07/07 01:38:20;;;;;;;;;3.00;3.00;;;;;18.84;57.42;101117.38;5087958;27;45195;-94
2021/07/07 01:40:46;;;;;;;;;5.25;4.00;;;;;18.84;57.12;101123.53;5099623;27;47070;-93
2021/07/07 01:43:11;;;;;;;;;2.00;2.00;;;;;18.82;57.47;101120.09;5098987;27;47722;-95
2021/07/07 01:50:41;;;;;;;;;3.50;3.25;;;;;18.78;57.10;101123.91;4999470;28;45680;-96
2021/07/07 01:53:07;;;;;;;;;3.75;3.75;;;;;18.77;57.63;101116.88;4999900;28;46854;-86
2021/07/07 01:55:32;;;;;;;;;2.25;2.25;;;;;18.73;57.20;101121.53;5009828;28;45267;-96
2021/07/07 01:57:58;;;;;;;;;4.00;4.00;;;;;18.73;57.76;101123.34;5011724;28;45210;-96
2021/07/07 02:00:26;;;;;;;;;4.75;3.00;;;;;18.62;57.61;101111.56;5009007;28;46097;-96
2021/07/07 02:02:54;;;;;;;;;6.75;3.00;;;;;18.66;57.47;101121.09;5014224;28;47205;-89
2021/07/07 02:05:23;;;;;;;;;3.00;3.00;;;;;18.65;58.07;101124.69;4999055;28;45498;-90
2021/07/07 02:07:49;;;;;;;;;6.00;4.00;;;;;18.60;58.11;101113.44;4998328;28;45552;-92
2021/07/07 02:10:17;;;;;;;;;7.75;4.00;;;;;18.60;57.68;101108.13;5000462;28;45983;-92
2021/07/07 02:12:43;;;;;;;;;3.25;2.25;;;;;18.64;57.58;101122.13;5001792;28;48077;-92
2021/07/07 02:15:14;;;;;;;;;3.75;3.25;;;;;18.60;57.74;101121.44;5003035;28;45385;-89
2021/07/07 02:17:42;;;;;;;;;2.75;2.00;;;;;18.57;58.06;101118.97;5001976;28;45366;-90
2021/07/07 02:20:10;;;;;;;;;3.25;2.75;;;;;18.57;57.72;101120.78;5000868;28;46241;-78
2021/07/07 02:22:36;;;;;;;;;5.00;4.50;;;;;18.53;58.34;101120.09;5002287;28;46285;-89
2021/07/07 02:25:05;;;;;;;;;2.75;2.75;;;;;18.55;58.37;101118.19;5018737;28;46096;-93
2021/07/07 02:27:31;;;;;;;;;4.25;4.25;;;;;18.53;58.42;101123.63;5002190;28;45426;-95
2021/07/07 02:29:56;;;;;;;;;3.00;3.00;;;;;18.53;58.21;101122.75;5018406;28;46020;-93
2021/07/07 02:32:21;;;;;;;;;4.00;4.00;;;;;18.50;58.58;101117.63;5005969;28;47275;-88
2021/07/07 02:34:47;;;;;;;;;3.00;3.00;;;;;18.46;58.84;101116.09;5002406;28;45410;-90
2021/07/07 02:37:12;;;;;;;;;3.50;3.50;;;;;18.44;58.69;101122.41;5006221;28;46757;-93
2021/07/07 02:39:37;;;;;;;;;3.50;3.00;;;;;18.46;58.88;101129.41;5026499;28;46921;-92
2021/07/07 02:42:03;;;;;;;;;5.00;5.00;;;;;18.50;58.95;101130.94;5002341;28;45319;-92
2021/07/07 02:44:28;;;;;;;;;3.25;3.00;;;;;18.47;58.91;101128.47;5002757;28;45312;-92
2021/07/07 02:46:54;;;;;;;;;4.25;3.00;;;;;18.40;58.87;101120.84;5000811;28;45411;-87
2021/07/07 02:49:20;;;;;;;;;4.00;3.00;;;;;18.38;58.85;101122.75;5008631;28;45258;-96
2021/07/07 02:51:46;;;;;;;;;4.00;4.00;;;;;18.31;58.99;101122.28;5006720;28;47178;-96
2021/07/07 02:54:11;;;;;;;;;3.25;3.25;;;;;18.33;59.19;101122.16;5021805;28;44566;-95
2021/07/07 02:56:36;;;;;;;;;4.00;4.00;;;;;18.31;59.70;101127.59;5003167;28;45190;-96
2021/07/07 02:59:02;;;;;;;;;3.00;3.00;;;;;18.28;59.21;101129.56;5001598;28;46126;-93
2021/07/07 03:01:27;;;;;;;;;4.25;3.75;;;;;18.20;59.55;101122.91;5000330;28;46977;-84
2021/07/07 03:03:52;;;;;;;;;6.75;3.25;;;;;18.13;59.72;101118.00;5000035;28;45496;-84
2021/07/07 03:06:19;;;;;;;;;4.50;4.00;;;;;18.12;59.46;101122.47;5016699;28;45278;-95
2021/07/07 03:08:44;;;;;;;;;4.00;4.00;;;;;18.05;59.58;101123.78;5002067;28;47244;-96
2021/07/07 03:11:10;;;;;;;;;5.25;4.25;;;;;18.04;60.02;101127.38;5018063;28;47283;-86
2021/07/07 03:13:35;;;;;;;;;5.25;3.75;;;;;18.06;59.93;101138.78;5017400;28;45583;-94
2021/07/07 03:16:02;;;;;;;;;5.25;4.00;;;;;18.05;59.99;101137.09;5001065;28;45430;-95
2021/07/07 03:18:28;;;;;;;;;4.25;3.25;;;;;17.98;60.35;101133.91;5000719;28;46365;-91
2021/07/07 03:20:54;;;;;;;;;2.25;2.25;;;;;17.97;60.72;101127.75;5000778;28;46308;-88
2021/07/07 03:23:21;;;;;;;;;6.00;4.25;;;;;18.02;60.76;101142.59;5001404;28;45224;-84
2021/07/07 03:25:48;;;;;;;;;5.75;4.25;;;;;17.93;60.93;101128.00;5001419;28;45248;-85
2021/07/07 03:28:14;;;;;;;;;5.25;3.50;;;;;17.91;60.80;101133.41;5001452;28;45419;-85
2021/07/07 03:30:40;;;;;;;;;4.50;3.00;;;;;17.88;60.66;101125.63;5000078;28;47363;-90
2021/07/07 03:33:06;;;;;;;;;3.00;3.00;;;;;17.88;60.71;101131.78;5000902;28;45535;-91
2021/07/07 03:35:32;;;;;;;;;5.75;4.00;;;;;17.92;61.29;101147.56;5001557;28;45413;-87
2021/07/07 03:37:58;;;;;;;;;4.00;3.50;;;;;17.87;61.15;101139.88;5001186;28;45370;-87
2021/07/07 03:40:26;;;;;;;;;5.50;4.00;;;;;17.86;60.85;101141.66;5001046;28;46636;-87
2021/07/07 03:42:51;;;;;;;;;4.00;3.00;;;;;17.86;61.33;101144.31;5001161;28;45174;-86
2021/07/07 03:45:18;;;;;;;;;3.25;3.25;;;;;17.83;61.71;101141.84;5001173;28;45232;-87
2021/07/07 03:47:44;;;;;;;;;4.50;4.00;;;;;17.82;61.75;101145.47;5000769;28;45224;-87
2021/07/07 03:50:10;;;;;;;;;4.50;2.75;;;;;17.81;61.53;101145.53;5000867;28;45440;-87
2021/07/07 03:52:36;;;;;;;;;4.75;3.50;;;;;17.74;62.09;101145.03;4999368;28;45715;-87
2021/07/07 03:55:07;;;;;;;;;4.25;4.25;;;;;17.75;61.61;101152.06;5001155;28;45428;-87
2021/07/07 03:57:33;;;;;;;;;1.50;1.50;;;;;17.71;62.18;101146.06;5001039;28;45417;-87
2021/07/07 03:59:58;;;;;;;;;4.75;4.25;;;;;17.68;62.10;101142.72;5001003;28;46460;-88
2021/07/07 04:02:23;;;;;;;;;2.50;2.50;;;;;17.70;62.03;101146.16;5000164;28;45435;-88
2021/07/07 04:04:49;;;;;;;;;3.75;3.50;;;;;17.70;62.10;101155.00;4999487;28;45615;-88
2021/07/07 04:07:14;;;;;;;;;5.00;3.00;;;;;17.71;62.13;101153.16;5001115;28;46345;-92
2021/07/07 04:09:39;;;;;;;;;5.00;4.00;;;;;17.68;62.22;101151.53;5000830;28;46187;-95
2021/07/07 04:12:05;;;;;;;;;6.00;4.25;;;;;17.70;62.38;101154.13;5000298;28;45392;-92
2021/07/07 04:14:31;;;;;;;;;4.75;4.75;;;;;17.74;61.98;101160.97;5000053;28;45401;-86
2021/07/07 04:16:58;;;;;;;;;4.75;3.00;;;;;17.77;62.75;101163.47;5000447;28;45477;-89
2021/07/07 04:19:27;;;;;;;;;6.00;4.00;;;;;17.80;62.42;101170.41;5000891;28;45603;-92
2021/07/07 04:21:54;;;;;;;;;6.00;4.25;;;;;17.82;62.56;101177.34;5021552;28;45315;-90
2021/07/07 04:24:19;;;;;;;;;5.75;4.50;;;;;17.85;62.59;101184.31;5000789;28;45430;-87
2021/07/07 04:26:45;;;;;;;;;4.50;4.50;;;;;17.83;62.31;101184.38;5001438;28;45563;-92
2021/07/07 04:29:12;;;;;;;;;3.50;3.00;;;;;17.86;62.69;101188.66;5000806;28;45496;-85
2021/07/07 04:31:38;;;;;;;;;5.25;4.00;;;;;17.86;62.51;101189.53;5000164;28;45276;-83
2021/07/07 04:34:04;;;;;;;;;7.00;5.00;;;;;17.91;63.05;101197.22;4999272;28;45429;-78
2021/07/07 04:36:30;;;;;;;;;3.00;3.00;;;;;17.92;62.62;101198.97;5000353;28;45548;-77
2021/07/07 04:38:56;;;;;;;;;5.00;4.50;;;;;17.91;63.23;101204.34;4999346;28;46454;-82
2021/07/07 04:41:21;;;;;;;;;4.75;4.25;;;;;17.97;63.01;101204.88;4998422;28;45477;-89
2021/07/07 04:43:47;;;;;;;;;6.75;5.00;;;;;17.98;63.49;101203.91;5001431;28;45219;-87
2021/07/07 04:46:12;;;;;;;;;3.75;3.75;;;;;18.05;63.25;101204.41;4999967;28;46767;-86
2021/07/07 04:48:38;;;;;;;;;6.25;4.00;;;;;18.07;63.29;101199.03;4999337;28;45322;-77
2021/07/07 04:51:04;;;;;;;;;4.75;4.75;;;;;18.13;63.19;101203.13;4999119;28;45457;-76
2021/07/07 04:53:29;;;;;;;;;6.25;4.25;;;;;18.14;63.34;101205.69;5000308;28;45383;-76
2021/07/07 04:55:55;;;;;;;;;6.50;5.00;;;;;18.16;63.47;101198.47;4998927;28;45313;-77
2021/07/07 04:58:24;;;;;;;;;9.00;7.75;;;;;18.21;63.31;101216.88;4998007;28;46053;-77
2021/07/07 05:00:49;;;;;;;;;7.75;6.50;;;;;18.21;62.99;101217.72;4998750;28;45537;-77
2021/07/07 05:03:14;;;;;;;;;8.50;5.00;;;;;18.18;62.83;101217.88;4998263;28;45648;-77
2021/07/07 05:05:40;;;;;;;;;8.50;5.25;;;;;18.17;63.52;101213.50;4998614;28;45281;-77
2021/07/07 05:08:05;;;;;;;;;6.75;5.25;;;;;18.22;62.95;101219.44;4997974;28;46469;-77
2021/07/07 05:10:32;;;;;;;;;6.25;6.00;;;;;18.25;63.50;101223.72;4998516;28;45257;-77
2021/07/07 05:12:58;;;;;;;;;6.00;5.25;;;;;18.26;63.10;101219.25;4997001;28;45434;-77
2021/07/07 05:15:24;;;;;;;;;7.25;4.25;;;;;18.30;62.91;101228.75;4998524;28;45323;-77
2021/07/07 05:17:49;;;;;;;;;4.00;4.00;;;;;18.32;63.60;101229.56;4997762;28;46830;-76
2021/07/07 05:20:16;;;;;;;;;6.00;6.00;;;;;18.35;63.48;101233.84;4999109;28;45423;-77
2021/07/07 05:22:43;;;;;;;;;5.00;5.00;;;;;18.33;63.60;101239.25;4999346;28;45481;-77
2021/07/07 05:25:10;;;;;;;;;4.00;3.00;;;;;18.36;62.92;101230.22;4999775;28;45323;-76
2021/07/07 05:27:36;;;;;;;;;5.75;3.50;;;;;18.40;63.19;101243.25;4998238;28;45609;-76
2021/07/07 05:30:05;;;;;;;;;5.25;3.25;;;;;18.43;63.40;101244.88;4997782;28;45293;-76
2021/07/07 05:32:30;;;;;;;;;5.75;4.25;;;;;18.49;63.25;101243.69;4996056;28;45357;-76
2021/07/07 05:34:56;;;;;;;;;4.00;3.25;;;;;18.50;63.41;101243.56;4999687;28;45580;-76
2021/07/07 05:37:22;;;;;;;;;4.50;4.50;;;;;18.54;62.98;101242.44;4996023;28;47100;-76
2021/07/07 05:39:53;;;;;;;;;4.50;4.00;;;;;18.57;63.31;101252.03;4998163;28;45786;-76
2021/07/07 05:42:20;;;;;;;;;6.50;3.75;;;;;18.58;63.07;101251.13;4998356;28;45514;-76
2021/07/07 05:44:47;;;;;;;;;5.25;4.00;;;;;18.60;62.69;101249.22;4996037;28;45383;-76
2021/07/07 05:47:12;;;;;;;;;6.50;5.00;;;;;18.61;62.72;101242.94;5000680;28;46773;-77
2021/07/07 05:49:38;;;;;;;;;4.00;4.00;;;;;18.61;63.09;101248.28;4999553;28;45261;-76
2021/07/07 05:52:04;;;;;;;;;6.25;5.00;;;;;18.65;63.09;101249.81;5000508;28;45893;-76
2021/07/07 05:54:31;;;;;;;;;3.75;3.50;;;;;18.70;63.38;101256.66;5001208;28;45386;-76
2021/07/07 05:56:57;;;;;;;;;2.75;2.75;;;;;18.75;63.33;101252.78;5002140;28;45331;-76
2021/07/07 05:59:22;;;;;;;;;6.00;4.00;;;;;18.89;63.00;101254.59;4999583;28;45593;-84
2021/07/07 06:01:47;;;;;;;;;4.25;3.50;;;;;18.99;62.74;101243.38;5001169;28;45376;-84
2021/07/07 06:04:13;;;;;;;;;3.50;3.50;;;;;19.16;62.74;101262.81;4999845;28;46183;-83
2021/07/07 06:06:38;;;;;;;;;4.00;4.00;;;;;19.25;62.54;101261.41;5000430;28;46444;-85
2021/07/07 06:09:03;;;;;;;;;3.00;3.00;;;;;19.34;62.41;101259.03;4999383;28;45399;-84
2021/07/07 06:11:29;;;;;;;;;5.00;5.00;;;;;19.42;62.21;101263.91;5002961;28;45212;-84
2021/07/07 06:13:54;;;;;;;;;5.00;4.00;;;;;19.56;62.11;101268.34;5002356;28;45511;-83
2021/07/07 06:16:20;;;;;;;;;8.50;6.75;;;;;19.64;61.46;101262.53;5013856;28;45406;-83
2021/07/07 06:18:45;;;;;;;;;7.25;3.50;;;;;19.66;61.04;101263.28;5000861;28;45496;-83
2021/07/07 06:21:10;;;;;;;;;5.00;4.00;;;;;19.71;61.17;101265.66;5001752;28;45382;-83
2021/07/07 06:23:36;;;;;;;;;5.00;4.00;;;;;19.73;60.94;101268.25;5001577;28;45457;-83
2021/07/07 06:26:01;;;;;;;;;5.50;5.00;;;;;19.81;60.86;101271.25;5002103;28;45409;-83
2021/07/07 06:28:27;;;;;;;;;6.50;5.00;;;;;19.83;61.00;101273.84;5001752;28;45382;-83
2021/07/07 06:30:52;;;;;;;;;5.50;5.50;;;;;19.89;60.56;101276.13;5001413;28;45757;-83
2021/07/07 06:33:18;;;;;;;;;8.25;6.75;;;;;19.87;60.44;101268.22;5001612;28;45368;-83
2021/07/07 06:35:43;;;;;;;;;5.25;4.75;;;;;19.86;59.92;101276.31;5002256;28;45328;-83
2021/07/07 06:38:10;;;;;;;;;4.25;4.25;;;;;19.78;60.17;101282.97;5001113;28;45303;-84
2021/07/07 06:40:36;;;;;;;;;5.00;5.00;;;;;19.73;60.41;101274.41;5016701;28;45271;-83
2021/07/07 06:43:01;;;;;;;;;4.25;4.25;;;;;19.75;60.35;101275.19;5001668;28;45454;-83
2021/07/07 06:45:28;;;;;;;;;4.00;4.00;;;;;19.79;60.46;101284.72;5001725;28;45453;-83
2021/07/07 06:47:54;;;;;;;;;7.00;5.50;;;;;19.81;60.32;101284.59;5001927;28;45565;-83
2021/07/07 06:50:19;;;;;;;;;6.00;6.00;;;;;19.85;60.49;101291.44;5001374;28;45600;-83
2021/07/07 06:52:45;;;;;;;;;6.25;5.00;;;;;19.85;60.22;101290.59;5001653;28;45558;-84
2021/07/07 06:55:11;;;;;;;;;7.00;5.25;;;;;19.85;60.22;101288.78;5000340;28;46129;-84
2021/07/07 06:57:37;;;;;;;;;5.25;4.00;;;;;19.92;59.87;101302.59;5001131;28;45448;-84
2021/07/07 07:00:08;;;;;;;;;7.50;5.25;;;;;19.90;60.27;101301.84;5001715;28;45478;-85
2021/07/07 07:02:35;;;;;;;;;5.50;5.00;;;;;19.79;60.08;101295.38;5001225;28;45442;-84
2021/07/07 07:05:00;;;;;;;;;7.00;6.25;;;;;19.71;59.99;101300.31;5001881;28;45395;-84
2021/07/07 07:07:26;;;;;;;;;8.50;6.75;;;;;19.69;60.05;101302.25;5001591;28;45256;-84
2021/07/07 07:09:52;;;;;;;;;5.75;5.25;;;;;19.66;60.00;101311.28;5001757;28;45314;-84
2021/07/07 07:12:17;;;;;;;;;4.75;4.00;;;;;19.63;60.37;101303.47;5001015;28;46809;-84
2021/07/07 07:14:43;;;;;;;;;7.25;7.25;;;;;19.65;60.67;101303.41;5001286;28;46209;-85
2021/07/07 07:17:08;;;;;;;;;8.25;8.00;;;;;19.72;60.15;101303.84;5000745;28;45358;-84
2021/07/07 07:19:33;;;;;;;;;7.25;6.00;;;;;19.78;60.39;101315.00;5001889;28;45331;-85
2021/07/07 07:21:59;;;;;;;;;5.75;5.75;;;;;19.83;59.83;101309.34;5001007;28;45449;-84
2021/07/07 07:24:30;;;;;;;;;6.75;6.00;;;;;19.85;59.84;101311.94;5000554;28;45329;-84
2021/07/07 07:26:56;;;;;;;;;6.75;6.75;;;;;19.89;59.98;101316.97;5001339;28;45299;-85
2021/07/07 07:29:21;;;;;;;;;6.00;5.50;;;;;19.92;59.10;101323.06;5001406;28;45446;-83
2021/07/07 07:31:47;;;;;;;;;6.25;6.00;;;;;19.86;59.60;101318.97;5000521;28;45689;-84
2021/07/07 07:34:13;;;;;;;;;7.00;6.50;;;;;19.88;59.86;101317.06;5001100;28;45361;-84
2021/07/07 07:36:38;;;;;;;;;7.25;6.50;;;;;19.95;59.67;101330.88;5000971;28;45476;-84
2021/07/07 07:39:10;;;;;;;;;4.50;4.50;;;;;19.99;59.48;101322.59;5001021;28;45378;-84
2021/07/07 07:41:38;;;;;;;;;7.75;6.25;;;;;20.06;59.42;101330.19;5001303;28;45289;-79
2021/07/07 07:44:08;;;;;;;;;8.00;6.25;;;;;20.11;59.64;101325.44;5001082;28;45470;-79
2021/07/07 07:46:33;;;;;;;;;6.25;5.75;;;;;20.18;59.13;101332.09;5001278;28;45233;-81
2021/07/07 07:49:00;;;;;;;;;5.75;5.75;;;;;20.19;58.88;101341.81;5000832;28;45280;-81
2021/07/07 07:51:26;;;;;;;;;7.00;6.50;;;;;20.17;58.19;101335.75;5000594;28;45311;-81
2021/07/07 07:53:51;;;;;;;;;7.00;6.00;;;;;20.12;58.56;101335.19;4995366;28;45600;-81
2021/07/07 07:56:17;;;;;;;;;7.50;6.00;;;;;20.06;58.62;101330.19;5000933;28;45344;-80
2021/07/07 07:58:43;;;;;;;;;6.00;5.00;;;;;20.10;58.65;101334.38;5000543;28;45490;-80
2021/07/07 08:01:08;;;;;;;;;7.75;7.00;;;;;20.13;58.54;101343.06;5000022;28;45507;-78
2021/07/07 08:03:35;;;;;;;;;7.50;7.00;;;;;20.15;58.22;101332.28;4999016;28;45399;-76
2021/07/07 08:06:00;;;;;;;;;9.75;6.25;;;;;20.17;58.16;101334.88;4999196;28;45593;-76
2021/07/07 08:08:25;;;;;;;;;5.50;5.00;;;;;20.22;58.21;101338.94;5000859;28;45445;-76
2021/07/07 08:10:51;;;;;;;;;6.25;6.25;;;;;20.28;58.19;101342.16;4999206;28;47251;-76
2021/07/07 08:13:16;;;;;;;;;8.00;7.00;;;;;20.26;57.40;101339.59;5000642;28;45458;-77
2021/07/07 08:15:42;;;;;;;;;5.50;4.75;;;;;20.26;57.87;101344.09;4999560;28;45387;-77
2021/07/07 08:18:07;;;;;;;;;7.25;6.25;;;;;20.28;57.80;101353.72;5000153;28;45500;-78
2021/07/07 08:20:36;;;;;;;;;6.00;6.00;;;;;20.29;57.77;101357.25;5000894;28;45579;-84
2021/07/07 08:23:02;;;;;;;;;4.00;4.00;;;;;20.31;57.99;101360.66;5015402;28;47369;-78
2021/07/07 08:25:27;;;;;;;;;5.00;5.00;;;;;20.28;57.40;101363.53;4997772;28;45390;-77
2021/07/07 08:27:54;;;;;;;;;10.50;8.00;;;;;20.28;57.55;101364.38;4998081;28;45331;-78
2021/07/07 08:30:20;;;;;;;;;8.00;5.50;;;;;20.28;57.88;101366.19;4999250;28;45168;-77
2021/07/07 08:32:45;;;;;;;;;9.75;6.00;;;;;20.27;57.76;101357.34;4998874;28;45299;-77
2021/07/07 08:35:11;;;;;;;;;9.75;6.75;;;;;20.30;57.28;101366.94;5000553;28;45281;-77
2021/07/07 08:37:38;;;;;;;;;5.00;4.00;;;;;20.32;57.56;101367.72;4998838;28;45549;-77
2021/07/07 08:40:05;;;;;;;;;6.00;6.00;;;;;20.30;57.28;101373.16;5015300;28;47478;-76
2021/07/07 08:42:34;;;;;;;;;5.25;5.00;;;;;20.32;57.16;101373.91;5015176;28;47272;-77
2021/07/07 08:45:01;;;;;;;;;6.00;6.00;;;;;20.33;56.99;101372.94;4999686;28;45788;-76
2021/07/07 08:47:26;;;;;;;;;6.50;5.50;;;;;20.36;57.16;101385.25;4998940;28;45428;-76
2021/07/07 08:49:52;;;;;;;;;6.75;5.00;;;;;20.38;57.02;101372.66;4999191;28;45255;-78
2021/07/07 08:52:17;;;;;;;;;6.50;6.50;;;;;20.35;57.22;101373.69;5014745;28;46207;-78
2021/07/07 08:54:47;;;;;;;;;4.00;3.50;;;;;20.34;58.21;101377.34;4999909;28;45669;-78
2021/07/07 08:57:12;;;;;;;;;6.25;6.25;;;;;20.32;57.28;101381.06;5000005;28;45409;-78
2021/07/07 08:59:38;;;;;;;;;5.25;5.00;;;;;20.29;57.18;101387.47;4999915;28;45640;-78
2021/07/07 09:02:05;;;;;;;;;4.00;4.00;;;;;20.26;56.98;101381.44;4999485;28;45619;-78
2021/07/07 09:04:35;;;;;;;;;10.75;7.00;;;;;20.27;57.61;101383.19;4999913;28;45226;-78
2021/07/07 13:54:28;;;;;;;;;7.00;6.25;;;;;21.19;57.97;101427.97;4976995;28;45847;-78
2021/07/07 13:56:53;;;;;;;;;5.75;5.50;;;;;21.13;57.80;101426.59;4979482;28;45407;-78
2021/07/07 13:59:19;;;;;;;;;6.00;6.00;;;;;21.14;58.00;101441.63;4977963;28;45335;-78
2021/07/07 14:01:44;;;;;;;;;6.25;6.25;;;;;21.04;57.86;101429.84;4979069;28;45208;-78
2021/07/07 14:04:10;;;;;;;;;4.00;4.00;;;;;20.98;57.72;101435.59;4974835;28;45347;-78
2021/07/07 14:06:36;;;;;;;;;5.25;4.25;;;;;20.94;58.17;101437.59;4970744;28;45228;-78
2021/07/07 14:09:03;;;;;;;;;5.25;5.00;;;;;20.91;58.16;101435.16;4966679;28;45534;-78
2021/07/07 14:11:28;;;;;;;;;6.00;5.50;;;;;20.94;57.96;101442.94;4981426;28;45553;-78
2021/07/07 14:13:53;;;;;;;;;4.25;4.25;;;;;20.94;57.83;101437.59;4983067;28;45313;-78
2021/07/07 14:16:19;;;;;;;;;4.00;4.00;;;;;20.91;57.94;101440.50;4982759;28;45417;-78
2021/07/07 14:18:44;;;;;;;;;4.25;4.25;;;;;20.97;58.00;101433.88;4979685;28;45866;-78
2021/07/07 14:21:10;;;;;;;;;7.00;5.00;;;;;20.99;58.14;101442.66;4980066;28;45419;-78
2021/07/07 14:23:35;;;;;;;;;5.00;4.00;;;;;21.04;59.08;101443.22;4982753;28;45347;-78
2021/07/07 14:26:01;;;;;;;;;4.25;4.25;;;;;21.14;58.58;101447.00;4982711;28;45363;-78
2021/07/07 14:28:26;;;;;;;;;5.00;5.00;;;;;21.20;58.00;101434.19;4981424;28;45351;-78
2021/07/07 14:30:51;;;;;;;;;4.75;4.00;;;;;21.25;57.35;101438.25;4975290;28;45511;-78
2021/07/07 14:33:17;;;;;;;;;5.00;4.00;;;;;21.24;57.20;101430.31;4980455;28;45407;-78
2021/07/07 14:35:42;;;;;;;;;3.00;3.00;;;;;21.27;56.28;101437.28;4982638;28;45312;-78
2021/07/07 14:38:08;;;;;;;;;3.00;3.00;;;;;21.19;56.14;101437.78;4981543;28;45528;-78
2021/07/07 14:40:34;;;;;;;;;3.50;3.50;;;;;21.11;55.75;101428.47;4974831;28;45231;-78
2021/07/07 14:42:59;;;;;;;;;3.00;3.00;;;;;21.06;55.92;101433.31;4982255;28;45308;-78
2021/07/07 14:45:25;;;;;;;;;4.25;4.25;;;;;21.04;55.88;101429.84;4982069;28;45285;-78
2021/07/07 14:47:50;;;;;;;;;3.00;3.00;;;;;21.02;55.63;101429.09;4982510;28;45762;-78
2021/07/07 14:50:21;;;;;;;;;5.00;4.50;;;;;21.01;55.87;101435.41;4981446;28;45265;-78
2021/07/07 14:52:47;;;;;;;;;3.25;3.25;;;;;20.99;55.35;101440.81;4978235;28;45365;-78
2021/07/07 14:55:12;;;;;;;;;3.75;3.75;;;;;21.02;55.55;101437.13;4969473;28;45535;-77
2021/07/07 14:57:38;;;;;;;;;3.00;2.25;;;;;21.00;55.57;101422.97;4979532;28;46562;-78
2021/07/07 15:00:04;;;;;;;;;4.00;3.50;;;;;21.09;55.72;101427.72;4968082;28;45238;-78
2021/07/07 15:02:30;;;;;;;;;4.00;4.00;;;;;21.11;55.23;101427.66;4981851;28;45375;-78
2021/07/07 15:04:56;;;;;;;;;4.00;4.00;;;;;21.09;55.45;101427.72;4981359;28;45562;-78
2021/07/07 15:07:22;;;;;;;;;4.75;4.50;;;;;21.10;55.17;101418.75;4981909;28;46876;-78
2021/07/07 15:09:47;;;;;;;;;6.25;4.25;;;;;21.11;55.41;101419.63;4977617;28;45424;-78
2021/07/07 15:12:14;;;;;;;;;5.00;4.50;;;;;21.09;55.04;101418.84;4977592;28;45442;-78
2021/07/07 15:14:39;;;;;;;;;4.00;4.00;;;;;21.06;55.12;101422.63;4982339;28;45315;-78
2021/07/07 15:17:05;;;;;;;;;4.00;4.00;;;;;21.05;55.45;101426.22;4980822;28;46532;-78
2021/07/07 15:19:32;;;;;;;;;3.00;3.00;;;;;21.08;55.18;101426.03;4981217;28;45458;-77
2021/07/07 15:21:58;;;;;;;;;3.75;3.75;;;;;21.14;55.10;101430.94;4981665;28;45512;-77
2021/07/07 15:24:23;;;;;;;;;2.25;2.25;;;;;21.11;55.01;101420.47;4975539;28;45625;-77
2021/07/07 15:26:49;;;;;;;;;3.25;3.25;;;;;21.14;55.23;101416.72;4975448;28;45463;-77
2021/07/07 15:29:14;;;;;;;;;2.00;2.00;;;;;21.16;55.13;101422.00;4980919;28;45204;-77
2021/07/07 15:31:40;;;;;;;;;3.50;3.50;;;;;21.13;55.15;101415.91;4978950;28;45270;-77
2021/07/07 15:34:06;;;;;;;;;3.00;3.00;;;;;21.19;55.78;101416.41;4980867;28;45143;-78
2021/07/07 15:36:31;;;;;;;;;3.50;3.50;;;;;21.31;54.98;101420.94;4980999;28;46209;-78
2021/07/07 15:38:57;;;;;;;;;2.75;2.75;;;;;21.34;55.33;101410.03;4978852;28;45467;-78
2021/07/07 15:41:22;;;;;;;;;3.00;3.00;;;;;21.38;54.49;101417.84;4980635;28;45503;-78
2021/07/07 15:43:48;;;;;;;;;3.25;3.25;;;;;21.39;54.61;101416.88;4980269;28;45185;-78
2021/07/07 15:46:13;;;;;;;;;1.50;1.00;;;;;21.44;54.83;101414.72;4981043;28;45530;-78
2021/07/07 15:48:40;;;;;;;;;4.50;3.25;;;;;21.52;54.62;101422.22;4981468;28;45479;-78
2021/07/07 15:51:06;;;;;;;;;1.75;1.75;;;;;21.56;54.41;101413.03;4981492;28;45395;-78
2021/07/07 15:53:33;;;;;;;;;3.00;3.00;;;;;21.67;55.10;101414.97;4978749;28;45257;-84
2021/07/07 15:55:59;;;;;;;;;3.00;3.00;;;;;21.70;54.58;101410.25;4975583;28;45645;-82
2021/07/07 15:58:24;;;;;;;;;5.00;4.75;;;;;21.70;54.80;101415.59;4981030;28;45349;-82
2021/07/07 16:00:50;;;;;;;;;3.00;3.00;;;;;21.64;54.43;101421.38;4980370;28;45505;-78
2021/07/07 16:03:16;;;;;;;;;3.75;3.00;;;;;21.60;53.85;101419.91;4980971;28;46784;-78
2021/07/07 16:05:42;;;;;;;;;2.00;2.00;;;;;21.54;53.54;101426.50;4981284;28;45350;-78
2021/07/07 16:08:07;;;;;;;;;4.50;3.00;;;;;21.48;54.43;101424.28;4980930;28;45160;-78
2021/07/07 16:10:33;;;;;;;;;5.75;3.75;;;;;21.44;54.00;101412.94;4980942;28;45332;-78